Time;durP1;ratioP1;P1;durP2;ratioP2;P2;SDS_P1;SDS_P2;PMS_P1;PMS_P2;Temp;Humidity;BMP_temperature;BMP_pressure;BME280_temperature;BME280_humidity;BME280_pressure;Samples;Min_cycle;Max_cycle;Signal;HPM_P1;HPM_P2
2022/11/30 00:02:23;;;;;;;18.37;12.80;;;;;;;1.24;78.33;101743.20;3419184;82;21491;-72
2022/11/30 00:07:14;;;;;;;16.37;11.50;;;;;;;1.25;78.60;101746.24;3367924;81;21002;-73
2022/11/30 00:12:06;;;;;;;19.82;13.45;;;;;;;1.27;78.61;101745.95;3381327;82;21065;-72
2022/11/30 00:16:58;;;;;;;20.05;13.58;;;;;;;1.27;78.78;101736.98;3408791;82;20978;-72
2022/11/30 00:21:49;;;;;;;17.87;11.30;;;;;;;1.27;78.66;101734.42;3400417;82;21025;-72
2022/11/30 00:26:40;;;;;;;20.17;13.50;;;;;;;1.25;78.45;101735.63;3358451;82;21386;-72
2022/11/30 00:31:31;;;;;;;18.92;13.18;;;;;;;1.23;78.63;101732.04;3346944;83;21001;-72
2022/11/30 00:36:22;;;;;;;19.52;12.82;;;;;;;1.22;78.71;101739.64;3323506;83;21552;-72
2022/11/30 00:41:15;;;;;;;20.35;12.30;;;;;;;1.25;78.81;101746.24;3317872;83;21003;-72
2022/11/30 00:46:10;;;;;;;20.05;12.93;;;;;;;1.26;78.84;101751.87;3319756;83;20932;-72
2022/11/30 00:51:01;;;;;;;18.20;12.47;;;;;;;1.26;78.85;101748.03;3335990;83;20966;-73
2022/11/30 00:55:52;;;;;;;22.82;14.93;;;;;;;1.26;78.78;101745.48;3331722;83;21521;-72
2022/11/30 01:00:45;;;;;;;20.62;13.10;;;;;;;1.26;78.59;101744.20;3352533;83;21090;-72
2022/11/30 01:05:37;;;;;;;20.12;13.10;;;;;;;1.26;78.48;101754.05;3323224;83;20928;-72
2022/11/30 01:10:29;;;;;;;19.80;12.35;;;;;;;1.25;78.61;101747.52;3364096;83;21035;-72
2022/11/30 01:15:21;;;;;;;17.65;11.95;;;;;;;1.25;78.82;101752.65;3328606;83;21229;-72
2022/11/30 01:20:12;;;;;;;17.70;13.10;;;;;;;1.25;78.87;101753.56;3338079;83;21062;-72
2022/11/30 01:25:04;;;;;;;19.05;12.90;;;;;;;1.24;78.67;101752.17;3326146;83;21512;-72
2022/11/30 01:29:56;;;;;;;21.00;13.65;;;;;;;1.22;78.75;101748.21;3332775;82;20947;-72
2022/11/30 01:34:47;;;;;;;19.57;13.25;;;;;;;1.25;78.83;101753.93;3377383;82;20959;-72
2022/11/30 01:39:38;;;;;;;23.50;14.78;;;;;;;1.24;78.72;101748.33;3324739;82;21322;-72
2022/11/30 01:44:35;;;;;;;22.95;14.73;;;;;;;1.23;78.56;101749.09;3375145;82;21549;-72
2022/11/30 01:49:34;;;;;;;17.47;11.40;;;;;;;1.21;78.58;101750.26;3412182;82;20982;-72
2022/11/30 01:54:31;;;;;;;21.00;14.00;;;;;;;1.24;78.71;101758.57;3411530;82;21468;-72
2022/11/30 01:59:24;;;;;;;19.50;13.50;;;;;;;1.25;78.58;101761.25;3408334;82;21108;-72
2022/11/30 02:04:24;;;;;;;23.62;14.43;;;;;;;1.25;78.51;101768.94;3369020;82;21041;-72
2022/11/30 02:09:18;;;;;;;22.10;13.98;;;;;;;1.26;78.48;101762.13;3397397;82;21116;-72
2022/11/30 02:14:35;;;;;;;20.62;13.20;;;;;;;1.28;78.55;101763.13;3374324;82;20982;-73
2022/11/30 02:19:41;;;;;;;22.37;14.40;;;;;;;1.28;78.62;101760.56;3390511;82;21013;-72
2022/11/30 02:25:03;;;;;;;17.95;13.10;;;;;;;1.25;78.46;101762.53;3391795;82;21595;-72
2022/11/30 02:30:11;;;;;;;18.40;12.33;;;;;;;1.22;78.55;101757.58;3397195;82;22034;-72
2022/11/30 02:35:05;;;;;;;20.77;14.65;;;;;;;1.22;78.40;101767.42;3401082;82;20954;-72
2022/11/30 02:39:57;;;;;;;23.15;14.05;;;;;;;1.23;78.34;101780.72;3343878;82;20970;-72
2022/11/30 02:44:51;;;;;;;22.93;15.32;;;;;;;1.21;78.33;101778.84;3364763;82;21018;-72
2022/11/30 02:49:57;;;;;;;23.73;15.43;;;;;;;1.21;78.43;101781.41;3350949;82;21141;-72
2022/11/30 02:54:49;;;;;;;22.32;14.60;;;;;;;1.21;78.40;101782.69;3366266;82;21468;-72
2022/11/30 02:59:40;;;;;;;22.60;14.25;;;;;;;1.20;78.21;101784.73;3407608;82;20958;-72
2022/11/30 03:04:31;;;;;;;23.57;14.93;;;;;;;1.20;78.56;101783.45;3383378;82;20977;-72
2022/11/30 03:09:22;;;;;;;24.23;15.13;;;;;;;1.19;78.58;101774.00;3350374;82;21057;-72
2022/11/30 03:14:14;;;;;;;21.68;14.55;;;;;;;1.22;78.50;101782.80;3370648;82;20977;-72
2022/11/30 03:19:05;;;;;;;25.95;15.28;;;;;;;1.25;78.70;101793.64;3408715;82;22154;-72
2022/11/30 03:23:56;;;;;;;23.25;14.03;;;;;;;1.26;78.50;101795.44;3355550;84;20990;-72
2022/11/30 03:28:47;;;;;;;21.05;14.25;;;;;;;1.26;78.63;101794.16;3344805;83;21484;-72
2022/11/30 03:33:42;;;;;;;24.98;15.03;;;;;;;1.22;78.62;101802.02;3327561;84;21207;-72
2022/11/30 03:38:34;;;;;;;22.73;13.35;;;;;;;1.23;78.58;101795.20;3301834;83;21100;-72
2022/11/30 03:43:25;;;;;;;21.73;15.00;;;;;;;1.23;78.67;101798.66;3225971;86;21592;-72
2022/11/30 03:48:16;;;;;;;21.62;15.05;;;;;;;1.24;78.56;101804.69;3265282;85;21006;-72
2022/11/30 03:53:07;;;;;;;20.62;14.03;;;;;;;1.26;78.72;101809.53;3251475;86;20967;-72
2022/11/30 03:57:59;;;;;;;22.13;14.05;;;;;;;1.27;78.74;101817.33;3257317;84;22075;-72
2022/11/30 04:02:50;;;;;;;21.68;14.47;;;;;;;1.27;78.68;101813.86;3360372;82;21112;-72
2022/11/30 04:07:41;;;;;;;21.40;13.95;;;;;;;1.26;78.80;101815.53;3373152;82;21006;-72
2022/11/30 04:12:32;;;;;;;20.65;13.98;;;;;;;1.25;78.87;101811.21;3334878;82;21001;-72
2022/11/30 04:17:23;;;;;;;21.55;13.80;;;;;;;1.24;78.96;101820.06;3378519;82;21008;-72
2022/11/30 04:22:14;;;;;;;22.67;14.80;;;;;;;1.24;78.91;101814.53;3369756;82;20970;-72
2022/11/30 04:27:05;;;;;;;20.08;14.20;;;;;;;1.26;79.00;101816.81;3368642;82;21001;-72
2022/11/30 04:31:56;;;;;;;22.55;13.93;;;;;;;1.26;79.00;101813.37;3397071;83;21021;-72
2022/11/30 04:36:47;;;;;;;19.27;13.18;;;;;;;1.26;78.95;101815.94;3347447;83;20935;-72
2022/11/30 04:41:39;;;;;;;19.85;13.08;;;;;;;1.27;79.08;101815.13;3353163;83;21026;-72
2022/11/30 04:46:30;;;;;;;20.25;13.65;;;;;;;1.23;78.85;101821.70;3287772;85;21086;-72
2022/11/30 04:51:21;;;;;;;19.73;13.25;;;;;;;1.22;78.80;101816.50;3316489;84;21006;-72
2022/11/30 04:56:12;;;;;;;18.67;13.03;;;;;;;1.22;78.90;101818.66;3269863;84;21052;-71
2022/11/30 05:01:04;;;;;;;20.15;12.90;;;;;;;1.22;78.91;101826.75;3349016;82;21077;-72
2022/11/30 05:05:55;;;;;;;17.45;11.60;;;;;;;1.25;78.90;101825.67;3390129;82;20950;-73
2022/11/30 05:10:52;;;;;;;19.70;12.98;;;;;;;1.24;78.95;101838.00;3420466;82;21502;-72
2022/11/30 05:15:45;;;;;;;20.77;13.05;;;;;;;1.23;79.22;101840.05;3379018;82;20952;-73
2022/11/30 05:20:36;;;;;;;18.90;12.80;;;;;;;1.23;79.21;101840.05;3332768;82;21097;-72
2022/11/30 05:25:28;;;;;;;16.15;12.82;;;;;;;1.21;79.24;101840.33;3373716;82;20961;-72
2022/11/30 05:30:19;;;;;;;21.40;14.07;;;;;;;1.23;79.18;101838.77;3278123;84;20937;-71
2022/11/30 05:35:10;;;;;;;22.22;15.63;;;;;;;1.22;79.31;101840.84;3336253;83;20948;-71
2022/11/30 05:40:01;;;;;;;22.10;16.02;;;;;;;1.23;79.36;101847.33;3314910;84;21042;-71
2022/11/30 05:44:52;;;;;;;22.50;15.83;;;;;;;1.23;79.38;101856.70;3321663;84;21186;-71
2022/11/30 05:49:43;;;;;;;21.73;15.08;;;;;;;1.22;79.29;101858.78;3269993;84;20994;-71
2022/11/30 05:54:35;;;;;;;22.98;14.63;;;;;;;1.21;79.30;101859.14;3346177;83;21014;-71
2022/11/30 05:59:26;;;;;;;23.67;16.20;;;;;;;1.21;79.34;101856.58;3382297;83;21030;-72
2022/11/30 06:04:17;;;;;;;22.77;15.23;;;;;;;1.22;79.33;101860.06;3354055;83;20982;-71
2022/11/30 06:09:08;;;;;;;25.68;15.78;;;;;;;1.20;79.34;101866.34;3373515;83;21366;-71
2022/11/30 06:13:59;;;;;;;22.52;15.30;;;;;;;1.21;79.37;101867.23;3386699;83;21247;-71
2022/11/30 06:18:51;;;;;;;24.05;15.88;;;;;;;1.21;79.36;101868.51;3344377;83;21516;-71
2022/11/30 06:23:42;;;;;;;25.82;17.00;;;;;;;1.20;79.23;101874.39;3371576;83;21021;-71
2022/11/30 06:28:35;;;;;;;21.97;15.30;;;;;;;1.20;79.43;101869.27;3314417;83;20932;-71
2022/11/30 06:33:27;;;;;;;24.55;17.40;;;;;;;1.19;79.26;101875.20;3352518;83;21446;-72
2022/11/30 06:38:19;;;;;;;22.07;15.38;;;;;;;1.19;79.37;101873.52;3344614;83;21038;-71
2022/11/30 06:43:10;;;;;;;24.07;15.68;;;;;;;1.22;79.45;101883.12;3337124;83;20995;-72
2022/11/30 06:48:01;;;;;;;21.80;15.15;;;;;;;1.22;79.35;101885.28;3307771;83;21010;-72
2022/11/30 06:52:54;;;;;;;21.40;14.80;;;;;;;1.22;79.30;101893.36;3344186;83;21003;-73
2022/11/30 06:57:45;;;;;;;25.52;17.20;;;;;;;1.22;79.42;101894.25;3307563;83;21218;-72
2022/11/30 07:02:37;;;;;;;22.80;15.13;;;;;;;1.21;79.25;101894.13;3346246;83;21011;-71
2022/11/30 07:07:39;;;;;;;21.02;14.18;;;;;;;1.21;79.02;101897.97;3291902;83;21537;-72
2022/11/30 07:12:30;;;;;;;19.85;14.30;;;;;;;1.18;79.04;101904.14;3330446;83;21089;-71
2022/11/30 07:17:21;;;;;;;23.30;15.48;;;;;;;1.21;79.10;101894.13;3348232;83;21389;-71
2022/11/30 07:22:13;;;;;;;25.65;15.00;;;;;;;1.22;79.13;101898.48;3340056;83;21374;-71
2022/11/30 07:27:04;;;;;;;25.88;15.40;;;;;;;1.21;78.92;101900.13;3326124;83;20967;-71
2022/11/30 07:31:55;;;;;;;23.83;15.23;;;;;;;1.23;78.98;101909.22;3249189;85;20935;-70
2022/11/30 07:36:47;;;;;;;22.22;16.27;;;;;;;1.25;79.12;101911.50;3280744;84;21706;-70
2022/11/30 07:41:40;;;;;;;23.57;14.63;;;;;;;1.30;79.18;101910.17;3365396;83;20990;-70
2022/11/30 07:46:35;;;;;;;23.52;14.00;;;;;;;1.33;79.32;101911.69;3304430;84;22022;-70
2022/11/30 07:51:26;;;;;;;23.65;14.63;;;;;;;1.35;79.07;101916.93;3246967;85;21517;-70
2022/11/30 07:56:19;;;;;;;19.40;12.58;;;;;;;1.36;79.11;101917.05;3282861;84;21007;-70
2022/11/30 08:01:15;;;;;;;23.20;14.35;;;;;;;1.35;79.04;101915.25;3174477;87;21045;-70
2022/11/30 08:06:13;;;;;;;18.45;12.98;;;;;;;1.37;79.11;101908.56;3332480;84;20963;-70
2022/11/30 08:11:06;;;;;;;18.00;11.95;;;;;;;1.39;79.02;101911.23;3281025;84;21929;-70
2022/11/30 08:16:04;;;;;;;17.90;12.73;;;;;;;1.40;79.05;101915.20;3250581;85;21062;-71
2022/11/30 08:21:01;;;;;;;14.90;11.20;;;;;;;1.41;78.81;101911.84;3265448;86;20939;-71
2022/11/30 08:25:52;;;;;;;19.75;12.75;;;;;;;1.41;78.82;101914.40;3204366;86;21006;-71
2022/11/30 08:30:44;;;;;;;17.40;13.22;;;;;;;1.39;78.79;101912.13;3178148;87;21135;-73
2022/11/30 08:35:35;;;;;;;17.12;12.80;;;;;;;1.37;78.76;101914.97;3178222;87;21497;-73
2022/11/30 08:40:50;;;;;;;18.57;13.40;;;;;;;1.37;78.76;101922.66;3282009;85;21009;-74
2022/11/30 08:45:43;;;;;;;18.45;11.63;;;;;;;1.40;78.91;101921.61;3270874;85;20956;-72
2022/11/30 08:50:35;;;;;;;13.38;10.85;;;;;;;1.43;78.85;101919.28;3300077;85;21567;-73
2022/11/30 08:55:26;;;;;;;16.75;11.80;;;;;;;1.45;78.92;101924.13;3249425;85;20982;-75
2022/11/30 09:00:18;;;;;;;16.77;10.72;;;;;;;1.46;78.97;101928.45;3305476;85;21384;-73
2022/11/30 09:05:19;;;;;;;15.98;12.43;;;;;;;1.46;78.75;101925.89;3237240;85;21672;-74
2022/11/30 09:10:12;;;;;;;18.70;12.82;;;;;;;1.47;78.85;101913.59;3314670;85;21523;-74
2022/11/30 09:15:09;;;;;;;14.63;9.83;;;;;;;1.51;78.96;101916.86;3321468;83;20959;-75
2022/11/30 09:20:01;;;;;;;18.30;11.00;;;;;;;1.50;78.72;101925.35;3314177;84;21026;-72
2022/11/30 09:24:59;;;;;;;14.75;10.23;;;;;;;1.52;78.87;101918.66;3229158;85;22878;-74
2022/11/30 09:29:49;;;;;;;12.03;9.38;;;;;;;1.52;78.88;101922.51;3210472;86;21531;-74
2022/11/30 09:34:53;;;;;;;13.60;9.18;;;;;;;1.58;79.01;101925.02;3348910;83;20947;-75
2022/11/30 09:40:07;;;;;;;15.35;9.93;;;;;;;1.59;78.88;101926.78;3368468;83;21157;-75
2022/11/30 09:45:23;;;;;;;15.30;10.30;;;;;;;1.58;78.82;101923.73;3392408;83;20994;-74
2022/11/30 09:50:22;;;;;;;12.73;9.28;;;;;;;1.61;78.84;101927.78;3418589;83;21412;-75
2022/11/30 09:55:19;;;;;;;12.60;9.23;;;;;;;1.62;78.81;101921.89;3369334;83;21089;-73
2022/11/30 10:00:20;;;;;;;12.00;9.37;;;;;;;1.67;79.01;101917.59;3348856;83;21010;-74
2022/11/30 10:05:47;;;;;;;14.00;10.25;;;;;;;1.75;79.06;101919.81;3363886;83;20955;-75
2022/11/30 10:10:43;;;;;;;14.40;9.78;;;;;;;1.82;78.84;101913.94;3311966;84;21851;-74
2022/11/30 10:15:56;;;;;;;13.08;9.40;;;;;;;1.84;78.73;101904.70;3319234;84;21309;-72
2022/11/30 10:21:02;;;;;;;13.22;10.32;;;;;;;1.90;79.00;101914.11;3309272;84;21062;-74
2022/11/30 10:26:01;;;;;;;15.63;9.95;;;;;;;1.95;78.78;101914.81;3299288;84;21157;-73
2022/11/30 10:31:07;;;;;;;15.20;9.95;;;;;;;1.97;78.87;101913.24;3297087;85;21075;-75
2022/11/30 10:35:59;;;;;;;14.28;9.55;;;;;;;2.00;78.98;101919.48;3282230;84;21030;-74
2022/11/30 10:41:04;;;;;;;13.25;10.00;;;;;;;1.93;78.60;101913.82;3323422;84;20994;-72
2022/11/30 10:45:55;;;;;;;10.80;8.18;;;;;;;1.95;79.00;101908.03;3347777;82;21633;-72
2022/11/30 10:50:47;;;;;;;14.93;10.28;;;;;;;1.90;78.61;101916.67;3348977;83;21010;-71
2022/11/30 10:55:43;;;;;;;13.93;9.50;;;;;;;1.87;78.73;101912.59;3378029;83;21026;-72
2022/11/30 11:00:35;;;;;;;14.30;9.48;;;;;;;1.86;78.98;101913.77;3376032;83;21482;-72
2022/11/30 11:05:29;;;;;;;11.75;8.58;;;;;;;1.88;79.13;101913.11;3367198;82;21034;-72
2022/11/30 11:10:32;;;;;;;14.68;9.33;;;;;;;1.87;79.21;101911.31;3379299;83;20958;-71
2022/11/30 11:15:30;;;;;;;14.98;10.18;;;;;;;1.86;79.30;101906.98;3400809;82;20916;-73
2022/11/30 11:20:42;;;;;;;13.98;10.15;;;;;;;1.87;79.54;101906.19;3397010;83;20986;-72
2022/11/30 11:25:35;;;;;;;16.23;9.10;;;;;;;1.88;79.70;101902.85;3374577;83;21744;-73
2022/11/30 11:30:32;;;;;;;14.93;9.95;;;;;;;1.90;79.87;101904.25;3378163;82;21527;-75
2022/11/30 11:35:45;;;;;;;14.65;9.38;;;;;;;1.92;80.10;101909.48;3383349;82;20978;-73
2022/11/30 11:40:36;;;;;;;14.13;10.03;;;;;;;1.91;80.12;101899.59;3412488;82;21497;-73
2022/11/30 11:45:32;;;;;;;14.15;10.53;;;;;;;1.92;80.30;101905.24;3377607;82;20935;-73
2022/11/30 11:50:35;;;;;;;31.30;22.42;;;;;;;1.93;80.35;101903.56;3346872;82;21519;-73
2022/11/30 11:55:27;;;;;;;15.20;9.80;;;;;;;1.91;80.35;101895.75;3394587;82;21115;-73
2022/11/30 12:00:24;;;;;;;16.95;10.63;;;;;;;1.89;80.39;101896.92;3335142;82;21554;-74
2022/11/30 12:05:48;;;;;;;15.10;10.23;;;;;;;1.86;80.40;101900.58;3409181;82;21491;-73
2022/11/30 12:10:59;;;;;;;16.60;10.82;;;;;;;1.82;80.59;101903.68;3420686;82;22174;-73
2022/11/30 12:16:21;;;;;;;15.85;10.90;;;;;;;1.77;80.37;101899.92;3359474;82;21033;-73
2022/11/30 12:21:45;;;;;;;18.32;11.53;;;;;;;1.74;80.41;101904.83;3403887;82;22744;-73
2022/11/30 12:26:54;;;;;;;15.43;10.45;;;;;;;1.78;80.55;101905.53;3387456;82;21041;-74
2022/11/30 12:31:53;;;;;;;14.33;9.73;;;;;;;1.79;80.35;101902.20;3377183;82;20978;-74
2022/11/30 12:36:59;;;;;;;14.15;10.00;;;;;;;1.79;80.34;101903.48;3382022;82;20989;-74
2022/11/30 12:41:54;;;;;;;14.73;10.53;;;;;;;1.81;80.31;101908.73;3389160;82;21527;-73
2022/11/30 12:47:15;;;;;;;15.63;10.28;;;;;;;1.83;80.30;101905.47;3367129;82;21932;-75
2022/11/30 12:52:29;;;;;;;14.05;9.63;;;;;;;1.87;80.32;101914.28;3418813;82;21053;-72
2022/11/30 12:57:38;;;;;;;18.05;11.35;;;;;;;1.84;80.20;101911.12;3388024;82;20930;-72
2022/11/30 13:03:15;;;;;;;17.92;13.05;;;;;;;1.86;80.31;101917.61;3386209;82;21487;-71
2022/11/30 13:08:24;;;;;;;13.70;9.00;;;;;;;1.86;80.40;101908.27;3381596;82;21811;-72
2022/11/30 13:13:21;;;;;;;17.65;11.55;;;;;;;1.88;80.32;101913.52;3407044;82;22653;-73
2022/11/30 13:18:20;;;;;;;17.97;11.50;;;;;;;1.87;80.52;101908.75;3413628;82;20997;-73
2022/11/30 13:23:43;;;;;;;17.82;11.28;;;;;;;1.89;80.56;101912.71;3390969;82;21013;-72
2022/11/30 13:28:49;;;;;;;17.50;12.37;;;;;;;1.89;80.55;101917.44;3386940;82;21547;-73
2022/11/30 13:33:55;;;;;;;17.98;11.93;;;;;;;1.90;80.48;101909.38;3352756;83;21002;-73
2022/11/30 13:38:49;;;;;;;19.15;11.30;;;;;;;1.88;80.53;101911.83;3359398;83;21063;-73
2022/11/30 13:43:44;;;;;;;15.05;10.00;;;;;;;1.85;80.42;101915.45;3366220;83;20923;-74
2022/11/30 13:48:41;;;;;;;15.53;11.12;;;;;;;1.85;80.41;101909.03;3393670;83;21248;-73
2022/11/30 13:53:37;;;;;;;18.80;12.35;;;;;;;1.85;80.53;101910.32;3374122;83;20987;-73
2022/11/30 13:58:29;;;;;;;13.50;9.60;;;;;;;1.86;80.45;101911.20;3334170;83;20989;-72
2022/11/30 14:03:25;;;;;;;18.85;11.50;;;;;;;1.88;80.58;101910.95;3401671;83;22278;-72
2022/11/30 14:08:25;;;;;;;14.75;9.35;;;;;;;1.88;80.61;101914.80;3357421;83;21155;-74
2022/11/30 14:13:29;;;;;;;13.00;8.85;;;;;;;1.88;80.68;101907.98;3373317;83;21029;-73
2022/11/30 14:18:32;;;;;;;15.30;9.53;;;;;;;1.85;80.36;101911.60;3402774;83;21005;-73
2022/11/30 14:23:44;;;;;;;13.68;9.63;;;;;;;1.82;80.31;101916.50;3385145;83;21014;-72
2022/11/30 14:29:03;;;;;;;13.70;9.75;;;;;;;1.81;80.44;101925.00;3401514;82;21555;-73
2022/11/30 14:34:09;;;;;;;13.88;10.58;;;;;;;1.82;80.43;101920.75;3354663;83;20930;-72
2022/11/30 14:39:00;;;;;;;17.55;10.38;;;;;;;1.81;80.31;101923.71;3385281;83;21401;-75
2022/11/30 14:44:12;;;;;;;15.80;9.75;;;;;;;1.83;80.57;101918.30;3400287;83;21061;-73
2022/11/30 14:49:21;;;;;;;13.38;9.48;;;;;;;1.83;80.42;101917.41;3343704;83;21014;-75
2022/11/30 14:54:37;;;;;;;14.30;10.65;;;;;;;1.83;80.32;101923.42;3373895;83;21221;-73
2022/11/30 14:59:46;;;;;;;15.63;10.65;;;;;;;1.82;80.23;101924.20;3380233;83;21080;-73
2022/11/30 15:05:06;;;;;;;15.75;11.43;;;;;;;1.79;80.23;101930.41;3358973;83;20994;-75
2022/11/30 15:10:05;;;;;;;16.35;11.63;;;;;;;1.79;80.20;101933.34;3383692;83;21298;-74
2022/11/30 15:15:06;;;;;;;15.63;10.80;;;;;;;1.79;80.13;101934.26;3402998;83;21002;-74
2022/11/30 15:19:57;;;;;;;15.03;10.80;;;;;;;1.79;80.30;101930.41;3422829;82;21443;-74
2022/11/30 15:24:51;;;;;;;17.90;11.22;;;;;;;1.78;80.23;101929.90;3438190;81;21487;-74
2022/11/30 15:29:52;;;;;;;15.18;10.60;;;;;;;1.77;80.26;101926.84;3391661;82;21030;-75
2022/11/30 15:35:00;;;;;;;16.97;11.33;;;;;;;1.78;80.45;101927.33;3410920;81;21606;-73
2022/11/30 15:39:55;;;;;;;19.20;11.25;;;;;;;1.78;80.36;101937.59;3438253;81;21535;-76
2022/11/30 15:44:49;;;;;;;18.37;13.28;;;;;;;1.81;80.34;101942.95;3341014;82;21092;-73
2022/11/30 15:49:51;;;;;;;22.32;13.38;;;;;;;1.82;80.42;101945.11;3384246;81;21519;-74
2022/11/30 15:55:02;;;;;;;18.48;12.40;;;;;;;1.82;80.48;101944.71;3425977;81;21116;-75
2022/11/30 16:00:16;;;;;;;16.65;11.88;;;;;;;1.83;80.39;101943.95;3405281;81;20984;-72
2022/11/30 16:05:16;;;;;;;17.48;12.30;;;;;;;1.83;80.39;101943.95;3356730;82;20985;-71
2022/11/30 16:10:37;;;;;;;17.82;10.15;;;;;;;1.83;80.47;101937.94;3413036;81;22307;-74
2022/11/30 16:15:33;;;;;;;19.32;11.12;;;;;;;1.82;80.51;101946.00;3416248;82;21018;-72
2022/11/30 16:20:25;;;;;;;15.50;12.23;;;;;;;1.82;80.54;101948.56;3372751;81;21033;-72
2022/11/30 16:25:23;;;;;;;16.67;11.55;;;;;;;1.81;80.51;101942.95;3340984;81;20986;-72
2022/11/30 16:30:17;;;;;;;;;;;;;;;1.83;80.50;101943.06;3371540;82;20966;-72
2022/11/30 16:35:20;;;;;;;13.58;10.40;;;;;;;1.81;80.42;101936.94;3405724;82;20973;-72
2022/11/30 16:40:12;;;;;;;14.50;9.68;;;;;;;1.82;80.59;101943.43;3396348;81;21010;-71
2022/11/30 16:45:05;;;;;;;10.82;7.67;;;;;;;1.82;80.19;101942.15;3378581;82;20939;-72
2022/11/30 16:49:56;;;;;;;12.85;8.65;;;;;;;1.82;80.18;101945.11;3413535;81;21014;-72
2022/11/30 16:54:46;;;;;;;14.20;9.73;;;;;;;1.79;80.08;101952.20;3398764;82;21916;-72
2022/11/30 16:59:37;;;;;;;12.25;9.48;;;;;;;1.81;80.11;101955.77;3315812;82;21246;-72
2022/11/30 17:04:29;;;;;;;12.90;9.28;;;;;;;1.81;79.88;101961.30;3380330;82;21071;-74
2022/11/30 17:09:21;;;;;;;11.63;8.78;;;;;;;1.82;79.99;101967.80;3375144;81;20989;-72
2022/11/30 17:14:13;;;;;;;15.25;9.85;;;;;;;1.82;79.67;101964.34;3371018;83;21429;-72
2022/11/30 17:19:06;;;;;;;14.47;9.45;;;;;;;1.81;79.75;101967.31;3363692;81;21018;-72
2022/11/30 17:23:57;;;;;;;13.65;8.80;;;;;;;1.83;79.89;101978.56;3384221;82;21294;-72
2022/11/30 17:28:49;;;;;;;11.55;9.03;;;;;;;1.84;79.87;101967.55;3389591;82;21049;-72
2022/11/30 17:33:40;;;;;;;10.43;8.30;;;;;;;1.84;79.56;101985.50;3409113;81;20950;-72
2022/11/30 17:38:34;;;;;;;11.33;7.50;;;;;;;1.83;79.41;101981.53;3383299;82;20982;-71
2022/11/30 17:43:25;;;;;;;10.82;8.23;;;;;;;1.84;79.52;101982.93;3388062;81;21021;-72
2022/11/30 17:48:17;;;;;;;9.80;7.85;;;;;;;1.84;79.41;101986.78;3383803;81;21194;-72
2022/11/30 17:53:09;;;;;;;10.48;7.75;;;;;;;1.84;79.40;101981.65;3348169;82;21018;-71
2022/11/30 17:58:00;;;;;;;11.25;8.73;;;;;;;1.85;79.53;101977.00;3351096;81;21001;-72
2022/11/30 18:02:52;;;;;;;11.85;8.98;;;;;;;1.87;79.64;101972.87;3391480;82;21497;-72
2022/11/30 18:07:44;;;;;;;13.00;8.23;;;;;;;1.88;79.66;101977.23;3354085;81;21021;-72
2022/11/30 18:18:35;;;;;;;10.90;8.40;;;;;;;1.89;79.62;101983.24;3072220;90;21075;-72
2022/11/30 18:23:26;;;;;;;12.28;8.15;;;;;;;1.88;79.91;101979.80;3038622;91;21520;-73
2022/11/30 18:28:17;;;;;;;16.90;8.78;;;;;;;1.87;79.73;101986.09;3059211;90;20999;-72
2022/11/30 18:33:08;;;;;;;15.48;10.25;;;;;;;1.87;79.85;101983.53;3063133;90;21694;-73
2022/11/30 18:37:59;;;;;;;9.63;7.42;;;;;;;1.87;79.82;101984.41;2982556;92;21200;-73
2022/11/30 18:48:53;;;;;;;15.00;8.88;;;;;;;1.83;79.89;101989.22;3181708;88;21640;-72
2022/11/30 18:53:44;;;;;;;11.80;8.55;;;;;;;1.80;79.83;101989.87;3141496;88;21038;-72
2022/11/30 18:58:35;;;;;;;16.27;9.63;;;;;;;1.79;79.92;101991.05;3108392;90;22122;-73
2022/11/30 19:03:27;;;;;;;13.98;9.53;;;;;;;1.78;80.00;101988.88;3149845;89;39559;-73
2022/11/30 19:08:18;;;;;;;15.08;10.38;;;;;;;1.80;80.13;101991.56;3014555;93;21067;-73
2022/11/30 19:13:10;;;;;;;15.13;11.28;;;;;;;1.78;79.72;101990.16;3085119;90;21023;-73
2022/11/30 19:18:01;;;;;;;17.57;11.88;;;;;;;1.76;79.76;101993.01;3179426;87;21087;-74
2022/11/30 19:22:52;;;;;;;19.98;13.18;;;;;;;1.79;79.96;101990.67;3225266;84;22099;-74
2022/11/30 19:27:43;;;;;;;16.70;12.30;;;;;;;1.80;79.98;101988.59;3303612;84;22159;-74
2022/11/30 19:32:35;;;;;;;19.00;12.78;;;;;;;1.80;79.88;101997.97;3361331;83;21070;-73
2022/11/30 19:37:26;;;;;;;20.57;13.53;;;;;;;1.79;80.14;101995.80;3360520;83;20940;-74
2022/11/30 19:42:17;;;;;;;12.13;9.38;;;;;;;1.77;80.18;101994.80;3324524;83;21426;-74
2022/11/30 19:47:08;;;;;;;15.80;9.05;;;;;;;1.76;80.28;101996.86;3393275;82;21010;-74
2022/11/30 19:51:59;;;;;;;13.25;9.65;;;;;;;1.77;80.05;102005.06;3318228;83;21151;-74
2022/11/30 19:56:51;;;;;;;13.30;8.93;;;;;;;1.77;79.80;102010.19;3372688;83;21045;-74
2022/11/30 20:01:42;;;;;;;12.88;8.75;;;;;;;1.78;79.88;102012.36;3366908;83;21002;-74
2022/11/30 20:06:37;;;;;;;11.85;9.60;;;;;;;1.80;79.85;102016.80;3384619;83;20987;-74
2022/11/30 20:11:28;;;;;;;12.78;8.33;;;;;;;1.81;79.76;102016.04;3377259;83;21548;-73
2022/11/30 20:16:22;;;;;;;12.13;8.45;;;;;;;1.79;79.66;102024.02;3334033;83;21975;-74
2022/11/30 20:21:17;;;;;;;12.45;9.40;;;;;;;1.78;79.70;102022.22;3338247;83;20997;-74
2022/11/30 20:26:17;;;;;;;11.97;8.08;;;;;;;1.77;79.66;102023.02;3344370;83;21516;-74
2022/11/30 20:31:10;;;;;;;12.33;8.68;;;;;;;1.77;79.75;102024.30;3378371;83;21338;-75
2022/11/30 20:36:04;;;;;;;9.58;8.55;;;;;;;1.79;79.71;102026.58;3350683;83;21034;-74
2022/11/30 20:40:56;;;;;;;11.55;7.78;;;;;;;1.79;79.83;102018.88;3379671;83;22097;-74
2022/11/30 20:45:47;;;;;;;12.13;8.23;;;;;;;1.81;80.12;102020.28;3368990;83;21071;-74
2022/11/30 20:50:39;;;;;;;11.65;8.50;;;;;;;1.82;79.84;102018.20;3368588;83;20968;-74
2022/11/30 20:55:29;;;;;;;11.85;8.13;;;;;;;1.82;79.86;102026.78;3328294;83;21035;-75
2022/11/30 21:00:21;;;;;;;11.55;8.93;;;;;;;1.82;79.82;102033.19;3329597;83;20932;-74
2022/11/30 21:05:12;;;;;;;13.13;9.28;;;;;;;1.84;79.84;102032.94;3297178;83;21087;-75
2022/11/30 21:10:05;;;;;;;17.40;9.83;;;;;;;1.85;79.86;102028.70;3356652;83;21553;-75
2022/11/30 21:14:57;;;;;;;14.40;10.72;;;;;;;1.84;79.89;102032.94;3352003;83;20968;-74
2022/11/30 21:19:50;;;;;;;14.13;10.80;;;;;;;1.86;79.97;102040.35;3348308;83;21047;-73
2022/11/30 21:24:41;;;;;;;18.35;11.53;;;;;;;1.85;79.84;102029.58;3398358;82;21510;-72
2022/11/30 21:29:32;;;;;;;15.97;11.10;;;;;;;1.84;79.85;102027.81;3368803;83;21710;-72
2022/11/30 21:34:24;;;;;;;18.77;12.18;;;;;;;1.82;79.88;102037.04;3330917;83;21480;-72
2022/11/30 21:39:15;;;;;;;17.17;12.15;;;;;;;1.81;79.89;102031.42;3365536;83;21040;-72
2022/11/30 21:44:10;;;;;;;15.93;11.08;;;;;;;1.78;79.96;102031.19;3346351;83;21019;-72
2022/11/30 21:49:02;;;;;;;13.68;10.28;;;;;;;1.77;80.03;102029.42;3339594;83;21173;-72
2022/11/30 21:53:58;;;;;;;16.32;11.57;;;;;;;1.76;80.12;102023.78;3370761;83;21099;-72
2022/11/30 21:58:50;;;;;;;18.60;11.80;;;;;;;1.76;80.16;102028.91;3377260;83;21132;-73
2022/11/30 22:03:42;;;;;;;17.92;11.10;;;;;;;1.78;80.25;102035.44;3352159;83;21548;-73
2022/11/30 22:08:34;;;;;;;17.98;11.85;;;;;;;1.76;80.20;102028.03;3305298;83;20986;-73
2022/11/30 22:13:25;;;;;;;19.07;11.68;;;;;;;1.74;80.17;102022.78;3347765;84;20943;-73
2022/11/30 22:18:16;;;;;;;20.30;12.23;;;;;;;1.72;80.24;102020.50;3344670;83;21020;-73
2022/11/30 22:23:07;;;;;;;17.67;11.97;;;;;;;1.71;80.30;102025.11;3338628;83;21035;-73
2022/11/30 22:27:58;;;;;;;18.05;12.15;;;;;;;1.70;80.39;102019.50;3344020;83;22141;-73
2022/11/30 22:32:49;;;;;;;20.40;12.98;;;;;;;1.70;80.44;102025.91;3311821;83;20981;-73
2022/11/30 22:37:40;;;;;;;18.03;12.90;;;;;;;1.70;80.43;102022.06;3323249;83;21746;-72
2022/11/30 22:42:31;;;;;;;22.10;13.30;;;;;;;1.69;80.49;102026.67;3335552;83;21445;-73
2022/11/30 22:47:23;;;;;;;20.45;13.05;;;;;;;1.67;80.57;102021.43;3374267;83;22173;-73
2022/11/30 22:52:14;;;;;;;18.15;12.55;;;;;;;1.68;80.67;102021.95;3367509;83;20971;-73
2022/11/30 22:57:05;;;;;;;20.02;14.00;;;;;;;1.68;80.75;102016.81;3366922;83;21014;-73